sensor_id;sensor_type;location;lat;lon;timestamp;temperature;humidity
18341;DHT22;9296;48.084;16.352;2023-10-08T00:01:18;21.90;59.60
18341;DHT22;9296;48.084;16.352;2023-10-08T00:03:46;21.90;59.70
18341;DHT22;9296;48.084;16.352;2023-10-08T00:06:16;22.00;60.10
18341;DHT22;9296;48.084;16.352;2023-10-08T00:09:05;22.00;60.50
18341;DHT22;9296;48.084;16.352;2023-10-08T00:11:37;21.90;60.50
18341;DHT22;9296;48.084;16.352;2023-10-08T00:14:05;21.90;60.70
18341;DHT22;9296;48.084;16.352;2023-10-08T00:16:35;22.00;60.50
18341;DHT22;9296;48.084;16.352;2023-10-08T00:19:05;21.90;60.60
18341;DHT22;9296;48.084;16.352;2023-10-08T00:21:36;21.90;60.70
18341;DHT22;9296;48.084;16.352;2023-10-08T00:24:04;21.90;60.90
18341;DHT22;9296;48.084;16.352;2023-10-08T00:26:33;21.90;61.00
18341;DHT22;9296;48.084;16.352;2023-10-08T00:29:02;21.90;60.80
18341;DHT22;9296;48.084;16.352;2023-10-08T00:31:32;21.90;60.90
18341;DHT22;9296;48.084;16.352;2023-10-08T00:34:06;21.90;60.90
18341;DHT22;9296;48.084;16.352;2023-10-08T00:36:38;21.90;61.00
18341;DHT22;9296;48.084;16.352;2023-10-08T00:43:02;21.90;61.40
18341;DHT22;9296;48.084;16.352;2023-10-08T00:45:36;21.90;60.70
18341;DHT22;9296;48.084;16.352;2023-10-08T00:48:09;22.00;60.80
18341;DHT22;9296;48.084;16.352;2023-10-08T00:50:37;21.90;60.00
18341;DHT22;9296;48.084;16.352;2023-10-08T00:53:10;22.00;60.50
18341;DHT22;9296;48.084;16.352;2023-10-08T00:59:08;22.00;61.30
18341;DHT22;9296;48.084;16.352;2023-10-08T01:01:38;22.00;60.70
18341;DHT22;9296;48.084;16.352;2023-10-08T01:04:06;22.00;61.00
18341;DHT22;9296;48.084;16.352;2023-10-08T01:06:37;21.90;61.00
18341;DHT22;9296;48.084;16.352;2023-10-08T01:09:26;21.90;61.00
18341;DHT22;9296;48.084;16.352;2023-10-08T01:12:07;21.90;61.50
18341;DHT22;9296;48.084;16.352;2023-10-08T01:14:37;21.90;61.50
18341;DHT22;9296;48.084;16.352;2023-10-08T01:17:07;21.90;61.60
18341;DHT22;9296;48.084;16.352;2023-10-08T01:19:35;21.90;61.90
18341;DHT22;9296;48.084;16.352;2023-10-08T01:22:07;21.80;62.00
18341;DHT22;9296;48.084;16.352;2023-10-08T01:24:38;21.80;61.90
18341;DHT22;9296;48.084;16.352;2023-10-08T01:27:06;21.80;62.30
18341;DHT22;9296;48.084;16.352;2023-10-08T01:29:37;21.80;61.80
18341;DHT22;9296;48.084;16.352;2023-10-08T01:32:04;21.80;62.10
18341;DHT22;9296;48.084;16.352;2023-10-08T01:34:35;21.80;62.30
18341;DHT22;9296;48.084;16.352;2023-10-08T01:37:04;21.80;62.20
18341;DHT22;9296;48.084;16.352;2023-10-08T01:39:54;21.80;62.90
18341;DHT22;9296;48.084;16.352;2023-10-08T01:42:26;21.80;63.60
18341;DHT22;9296;48.084;16.352;2023-10-08T01:44:54;21.80;62.40
18341;DHT22;9296;48.084;16.352;2023-10-08T01:47:21;21.80;63.10
18341;DHT22;9296;48.084;16.352;2023-10-08T01:49:51;21.80;63.00
18341;DHT22;9296;48.084;16.352;2023-10-08T01:52:26;21.80;63.10
18341;DHT22;9296;48.084;16.352;2023-10-08T01:55:17;21.70;62.80
18341;DHT22;9296;48.084;16.352;2023-10-08T01:57:45;21.70;63.10
18341;DHT22;9296;48.084;16.352;2023-10-08T02:00:12;21.60;63.30
18341;DHT22;9296;48.084;16.352;2023-10-08T02:02:44;21.60;63.60
18341;DHT22;9296;48.084;16.352;2023-10-08T02:05:11;21.60;63.90
18341;DHT22;9296;48.084;16.352;2023-10-08T02:07:40;21.60;63.90
18341;DHT22;9296;48.084;16.352;2023-10-08T02:10:10;21.60;63.80
18341;DHT22;9296;48.084;16.352;2023-10-08T02:12:38;21.60;64.40
18341;DHT22;9296;48.084;16.352;2023-10-08T02:15:07;21.60;64.30
18341;DHT22;9296;48.084;16.352;2023-10-08T02:17:37;21.70;64.70
18341;DHT22;9296;48.084;16.352;2023-10-08T02:20:06;21.70;65.40
18341;DHT22;9296;48.084;16.352;2023-10-08T02:22:33;21.60;65.40
18341;DHT22;9296;48.084;16.352;2023-10-08T02:25:20;21.60;65.60
18341;DHT22;9296;48.084;16.352;2023-10-08T02:27:49;21.60;66.20
18341;DHT22;9296;48.084;16.352;2023-10-08T02:30:17;21.60;66.40
18341;DHT22;9296;48.084;16.352;2023-10-08T02:32:44;21.60;66.70
18341;DHT22;9296;48.084;16.352;2023-10-08T02:35:12;21.60;66.80
18341;DHT22;9296;48.084;16.352;2023-10-08T02:37:39;21.50;67.20
18341;DHT22;9296;48.084;16.352;2023-10-08T02:40:07;21.50;67.30
18341;DHT22;9296;48.084;16.352;2023-10-08T02:42:43;21.50;67.80
18341;DHT22;9296;48.084;16.352;2023-10-08T02:45:12;21.50;67.60
18341;DHT22;9296;48.084;16.352;2023-10-08T02:47:41;21.50;68.00
18341;DHT22;9296;48.084;16.352;2023-10-08T02:50:10;21.40;68.10
18341;DHT22;9296;48.084;16.352;2023-10-08T02:52:38;21.40;68.40
18341;DHT22;9296;48.084;16.352;2023-10-08T02:58:12;21.40;68.70
18341;DHT22;9296;48.084;16.352;2023-10-08T03:00:42;21.40;68.70
18341;DHT22;9296;48.084;16.352;2023-10-08T03:03:12;21.30;69.00
18341;DHT22;9296;48.084;16.352;2023-10-08T03:05:44;21.30;69.10
18341;DHT22;9296;48.084;16.352;2023-10-08T03:08:12;21.30;69.50
18341;DHT22;9296;48.084;16.352;2023-10-08T03:10:57;21.40;69.80
18341;DHT22;9296;48.084;16.352;2023-10-08T03:13:29;21.40;70.00
18341;DHT22;9296;48.084;16.352;2023-10-08T03:15:58;21.30;70.40
18341;DHT22;9296;48.084;16.352;2023-10-08T03:18:33;21.30;69.50
18341;DHT22;9296;48.084;16.352;2023-10-08T03:21:02;21.30;69.50
18341;DHT22;9296;48.084;16.352;2023-10-08T03:23:30;21.30;69.80
18341;DHT22;9296;48.084;16.352;2023-10-08T03:26:01;21.30;69.50
18341;DHT22;9296;48.084;16.352;2023-10-08T03:28:36;21.30;69.60
18341;DHT22;9296;48.084;16.352;2023-10-08T03:31:05;21.30;69.60
18341;DHT22;9296;48.084;16.352;2023-10-08T03:33:39;21.30;69.80
18341;DHT22;9296;48.084;16.352;2023-10-08T03:36:08;21.30;69.90
18341;DHT22;9296;48.084;16.352;2023-10-08T03:38:40;21.30;69.50
18341;DHT22;9296;48.084;16.352;2023-10-08T03:44:38;21.30;69.70
18341;DHT22;9296;48.084;16.352;2023-10-08T03:47:09;21.30;69.90
18341;DHT22;9296;48.084;16.352;2023-10-08T03:49:36;21.30;70.10
18341;DHT22;9296;48.084;16.352;2023-10-08T03:52:10;21.30;70.10
18341;DHT22;9296;48.084;16.352;2023-10-08T03:54:38;21.30;70.20
18341;DHT22;9296;48.084;16.352;2023-10-08T03:57:13;21.30;70.00
18341;DHT22;9296;48.084;16.352;2023-10-08T03:59:45;21.30;70.30
18341;DHT22;9296;48.084;16.352;2023-10-08T04:02:15;21.30;70.50
18341;DHT22;9296;48.084;16.352;2023-10-08T04:04:50;21.20;70.50
18341;DHT22;9296;48.084;16.352;2023-10-08T04:07:18;21.20;70.50
18341;DHT22;9296;48.084;16.352;2023-10-08T04:13:48;21.10;71.30
18341;DHT22;9296;48.084;16.352;2023-10-08T04:16:16;21.10;71.30
18341;DHT22;9296;48.084;16.352;2023-10-08T04:18:46;21.10;71.60
18341;DHT22;9296;48.084;16.352;2023-10-08T04:21:17;21.10;71.80
18341;DHT22;9296;48.084;16.352;2023-10-08T04:23:46;21.10;71.70
18341;DHT22;9296;48.084;16.352;2023-10-08T04:26:17;21.10;71.80
18341;DHT22;9296;48.084;16.352;2023-10-08T04:28:49;21.10;72.20
18341;DHT22;9296;48.084;16.352;2023-10-08T04:31:20;21.20;72.20
18341;DHT22;9296;48.084;16.352;2023-10-08T04:33:51;21.10;72.40
18341;DHT22;9296;48.084;16.352;2023-10-08T04:36:19;21.10;72.60
18341;DHT22;9296;48.084;16.352;2023-10-08T04:38:47;21.20;72.60
18341;DHT22;9296;48.084;16.352;2023-10-08T04:41:20;21.10;72.70
18341;DHT22;9296;48.084;16.352;2023-10-08T04:43:53;21.10;72.50
18341;DHT22;9296;48.084;16.352;2023-10-08T04:46:21;21.10;72.60
18341;DHT22;9296;48.084;16.352;2023-10-08T04:49:13;21.10;73.00
18341;DHT22;9296;48.084;16.352;2023-10-08T04:51:55;21.10;73.10
18341;DHT22;9296;48.084;16.352;2023-10-08T04:54:26;21.10;73.20
18341;DHT22;9296;48.084;16.352;2023-10-08T04:56:56;21.10;73.20
18341;DHT22;9296;48.084;16.352;2023-10-08T04:59:24;21.10;73.30
18341;DHT22;9296;48.084;16.352;2023-10-08T05:01:58;21.10;73.70
18341;DHT22;9296;48.084;16.352;2023-10-08T05:04:50;21.10;73.50
18341;DHT22;9296;48.084;16.352;2023-10-08T05:07:32;21.10;74.10
18341;DHT22;9296;48.084;16.352;2023-10-08T05:10:40;21.10;73.90
18341;DHT22;9296;48.084;16.352;2023-10-08T05:13:33;21.10;73.90
18341;DHT22;9296;48.084;16.352;2023-10-08T05:16:10;21.10;73.90
18341;DHT22;9296;48.084;16.352;2023-10-08T05:19:01;21.10;73.90
18341;DHT22;9296;48.084;16.352;2023-10-08T05:21:41;21.10;74.00
18341;DHT22;9296;48.084;16.352;2023-10-08T05:24:27;21.10;74.80
18341;DHT22;9296;48.084;16.352;2023-10-08T05:27:04;21.10;74.30
18341;DHT22;9296;48.084;16.352;2023-10-08T05:30:03;21.10;74.20
18341;DHT22;9296;48.084;16.352;2023-10-08T05:32:41;21.20;74.30
18341;DHT22;9296;48.084;16.352;2023-10-08T05:35:31;21.20;74.10
18341;DHT22;9296;48.084;16.352;2023-10-08T05:38:16;21.20;74.20
18341;DHT22;9296;48.084;16.352;2023-10-08T05:41:06;21.20;73.90
18341;DHT22;9296;48.084;16.352;2023-10-08T05:43:53;21.20;74.10
18341;DHT22;9296;48.084;16.352;2023-10-08T05:46:37;21.30;74.20
18341;DHT22;9296;48.084;16.352;2023-10-08T05:49:32;21.30;74.20
18341;DHT22;9296;48.084;16.352;2023-10-08T05:52:08;21.30;74.00
18341;DHT22;9296;48.084;16.352;2023-10-08T05:55:09;21.30;73.80
18341;DHT22;9296;48.084;16.352;2023-10-08T05:57:51;21.30;74.30
18341;DHT22;9296;48.084;16.352;2023-10-08T06:00:39;21.30;74.00
18341;DHT22;9296;48.084;16.352;2023-10-08T06:03:23;21.30;74.00
18341;DHT22;9296;48.084;16.352;2023-10-08T06:06:04;21.30;73.90
18341;DHT22;9296;48.084;16.352;2023-10-08T06:09:05;21.30;74.00
18341;DHT22;9296;48.084;16.352;2023-10-08T06:11:47;21.30;74.70
18341;DHT22;9296;48.084;16.352;2023-10-08T06:14:32;21.30;74.30
18341;DHT22;9296;48.084;16.352;2023-10-08T06:17:18;21.40;74.20
18341;DHT22;9296;48.084;16.352;2023-10-08T06:20:00;21.50;74.40
18341;DHT22;9296;48.084;16.352;2023-10-08T06:22:35;21.50;74.40
18341;DHT22;9296;48.084;16.352;2023-10-08T06:28:44;21.60;74.30
18341;DHT22;9296;48.084;16.352;2023-10-08T06:31:11;21.50;74.80
18341;DHT22;9296;48.084;16.352;2023-10-08T06:33:42;21.50;74.60
18341;DHT22;9296;48.084;16.352;2023-10-08T06:36:10;21.60;75.20
18341;DHT22;9296;48.084;16.352;2023-10-08T06:38:42;21.70;75.80
18341;DHT22;9296;48.084;16.352;2023-10-08T06:41:11;21.70;75.00
18341;DHT22;9296;48.084;16.352;2023-10-08T06:43:45;21.80;74.70
18341;DHT22;9296;48.084;16.352;2023-10-08T06:46:15;21.80;74.80
18341;DHT22;9296;48.084;16.352;2023-10-08T06:48:45;21.90;75.30
18341;DHT22;9296;48.084;16.352;2023-10-08T06:51:15;22.00;75.60
18341;DHT22;9296;48.084;16.352;2023-10-08T06:53:45;22.10;75.00
18341;DHT22;9296;48.084;16.352;2023-10-08T06:56:30;22.20;74.20
18341;DHT22;9296;48.084;16.352;2023-10-08T06:58:59;22.30;74.70
18341;DHT22;9296;48.084;16.352;2023-10-08T07:01:27;22.30;73.60
18341;DHT22;9296;48.084;16.352;2023-10-08T07:04:04;22.50;74.80
18341;DHT22;9296;48.084;16.352;2023-10-08T07:06:32;22.80;74.30
18341;DHT22;9296;48.084;16.352;2023-10-08T07:09:00;22.90;74.00
18341;DHT22;9296;48.084;16.352;2023-10-08T07:11:31;23.10;74.30
18341;DHT22;9296;48.084;16.352;2023-10-08T07:14:01;23.40;73.20
18341;DHT22;9296;48.084;16.352;2023-10-08T07:16:29;23.70;71.40
18341;DHT22;9296;48.084;16.352;2023-10-08T07:18:56;24.10;71.80
18341;DHT22;9296;48.084;16.352;2023-10-08T07:21:29;24.30;70.00
18341;DHT22;9296;48.084;16.352;2023-10-08T07:24:04;24.70;70.50
18341;DHT22;9296;48.084;16.352;2023-10-08T07:26:40;25.50;69.40
18341;DHT22;9296;48.084;16.352;2023-10-08T07:29:14;26.20;66.50
18341;DHT22;9296;48.084;16.352;2023-10-08T07:31:43;26.40;67.30
18341;DHT22;9296;48.084;16.352;2023-10-08T07:34:15;26.80;66.60
18341;DHT22;9296;48.084;16.352;2023-10-08T07:36:46;27.40;63.20
18341;DHT22;9296;48.084;16.352;2023-10-08T07:39:14;27.70;63.60
18341;DHT22;9296;48.084;16.352;2023-10-08T07:41:52;27.70;62.20
18341;DHT22;9296;48.084;16.352;2023-10-08T07:44:22;27.70;63.10
18341;DHT22;9296;48.084;16.352;2023-10-08T07:46:50;27.70;62.90
18341;DHT22;9296;48.084;16.352;2023-10-08T07:49:17;27.90;63.20
18341;DHT22;9296;48.084;16.352;2023-10-08T07:51:44;27.80;65.90
18341;DHT22;9296;48.084;16.352;2023-10-08T07:54:17;28.00;63.00
18341;DHT22;9296;48.084;16.352;2023-10-08T07:56:46;28.30;62.20
18341;DHT22;9296;48.084;16.352;2023-10-08T07:59:18;28.30;62.00
18341;DHT22;9296;48.084;16.352;2023-10-08T08:01:49;28.70;62.30
18341;DHT22;9296;48.084;16.352;2023-10-08T08:04:20;28.70;63.20
18341;DHT22;9296;48.084;16.352;2023-10-08T08:06:49;28.40;61.40
18341;DHT22;9296;48.084;16.352;2023-10-08T08:09:17;28.30;62.50
18341;DHT22;9296;48.084;16.352;2023-10-08T08:15:12;27.30;64.10
18341;DHT22;9296;48.084;16.352;2023-10-08T08:17:43;26.90;64.90
18341;DHT22;9296;48.084;16.352;2023-10-08T08:20:14;26.30;65.80
18341;DHT22;9296;48.084;16.352;2023-10-08T08:22:44;25.70;66.90
18341;DHT22;9296;48.084;16.352;2023-10-08T08:25:15;25.10;68.50
18341;DHT22;9296;48.084;16.352;2023-10-08T08:27:52;24.70;69.50
18341;DHT22;9296;48.084;16.352;2023-10-08T08:30:19;24.30;70.40
18341;DHT22;9296;48.084;16.352;2023-10-08T08:32:48;24.10;71.60
18341;DHT22;9296;48.084;16.352;2023-10-08T08:35:15;23.90;72.50
18341;DHT22;9296;48.084;16.352;2023-10-08T08:37:43;23.70;72.10
18341;DHT22;9296;48.084;16.352;2023-10-08T08:40:12;23.60;73.30
18341;DHT22;9296;48.084;16.352;2023-10-08T08:42:44;23.60;73.70
18341;DHT22;9296;48.084;16.352;2023-10-08T08:45:13;23.50;74.10
18341;DHT22;9296;48.084;16.352;2023-10-08T08:47:43;23.30;74.30
18341;DHT22;9296;48.084;16.352;2023-10-08T08:50:13;23.20;75.10
18341;DHT22;9296;48.084;16.352;2023-10-08T08:52:40;23.10;75.70
18341;DHT22;9296;48.084;16.352;2023-10-08T08:55:08;23.10;76.00
18341;DHT22;9296;48.084;16.352;2023-10-08T08:57:41;23.00;75.70
18341;DHT22;9296;48.084;16.352;2023-10-08T09:00:11;22.90;76.60
18341;DHT22;9296;48.084;16.352;2023-10-08T09:02:39;22.90;76.90
18341;DHT22;9296;48.084;16.352;2023-10-08T09:05:07;22.90;77.30
18341;DHT22;9296;48.084;16.352;2023-10-08T09:07:58;22.80;77.00
18341;DHT22;9296;48.084;16.352;2023-10-08T09:10:28;22.70;78.20
18341;DHT22;9296;48.084;16.352;2023-10-08T09:12:58;22.50;78.10
18341;DHT22;9296;48.084;16.352;2023-10-08T09:15:26;22.30;78.80
18341;DHT22;9296;48.084;16.352;2023-10-08T09:17:53;22.20;79.30
18341;DHT22;9296;48.084;16.352;2023-10-08T09:20:21;22.00;79.80
18341;DHT22;9296;48.084;16.352;2023-10-08T09:23:07;22.00;80.60
18341;DHT22;9296;48.084;16.352;2023-10-08T09:25:44;21.90;80.60
18341;DHT22;9296;48.084;16.352;2023-10-08T09:28:11;21.70;81.80
18341;DHT22;9296;48.084;16.352;2023-10-08T09:30:39;21.60;83.90
18341;DHT22;9296;48.084;16.352;2023-10-08T09:33:08;21.40;90.00
18341;DHT22;9296;48.084;16.352;2023-10-08T09:35:35;21.20;92.40
18341;DHT22;9296;48.084;16.352;2023-10-08T09:38:03;21.00;94.60
18341;DHT22;9296;48.084;16.352;2023-10-08T09:40:44;20.80;95.50
18341;DHT22;9296;48.084;16.352;2023-10-08T09:43:11;20.70;97.30
18341;DHT22;9296;48.084;16.352;2023-10-08T09:45:39;20.60;98.50
18341;DHT22;9296;48.084;16.352;2023-10-08T09:48:11;20.20;98.90
18341;DHT22;9296;48.084;16.352;2023-10-08T09:50:42;20.20;99.20
18341;DHT22;9296;48.084;16.352;2023-10-08T09:53:16;20.00;99.90
18341;DHT22;9296;48.084;16.352;2023-10-08T09:56:02;19.80;99.90
18341;DHT22;9296;48.084;16.352;2023-10-08T09:58:32;19.70;99.90
18341;DHT22;9296;48.084;16.352;2023-10-08T10:01:00;19.60;99.90
18341;DHT22;9296;48.084;16.352;2023-10-08T10:03:27;19.60;99.90
18341;DHT22;9296;48.084;16.352;2023-10-08T10:06:15;19.50;99.90
18341;DHT22;9296;48.084;16.352;2023-10-08T10:08:43;19.50;99.90
18341;DHT22;9296;48.084;16.352;2023-10-08T10:11:15;19.40;99.90
18341;DHT22;9296;48.084;16.352;2023-10-08T10:13:44;19.30;99.90
18341;DHT22;9296;48.084;16.352;2023-10-08T10:16:17;19.30;99.90
18341;DHT22;9296;48.084;16.352;2023-10-08T10:18:45;19.10;99.90
18341;DHT22;9296;48.084;16.352;2023-10-08T10:21:26;19.00;99.90
18341;DHT22;9296;48.084;16.352;2023-10-08T10:23:55;18.90;99.90
18341;DHT22;9296;48.084;16.352;2023-10-08T10:26:25;18.80;99.90
18341;DHT22;9296;48.084;16.352;2023-10-08T10:29:22;18.60;99.90
18341;DHT22;9296;48.084;16.352;2023-10-08T10:32:02;18.40;99.90
18341;DHT22;9296;48.084;16.352;2023-10-08T10:34:31;18.40;99.90
18341;DHT22;9296;48.084;16.352;2023-10-08T10:37:00;18.30;99.90
18341;DHT22;9296;48.084;16.352;2023-10-08T10:39:34;18.20;99.90
18341;DHT22;9296;48.084;16.352;2023-10-08T10:45:30;18.00;99.90
18341;DHT22;9296;48.084;16.352;2023-10-08T10:48:06;17.90;99.90
18341;DHT22;9296;48.084;16.352;2023-10-08T10:50:49;17.70;99.90
18341;DHT22;9296;48.084;16.352;2023-10-08T10:53:34;17.70;99.90
18341;DHT22;9296;48.084;16.352;2023-10-08T10:56:11;17.70;99.90
18341;DHT22;9296;48.084;16.352;2023-10-08T10:58:45;17.60;99.90
18341;DHT22;9296;48.084;16.352;2023-10-08T11:01:12;17.50;99.90
18341;DHT22;9296;48.084;16.352;2023-10-08T11:03:50;17.40;99.90
18341;DHT22;9296;48.084;16.352;2023-10-08T11:06:18;17.40;99.90
18341;DHT22;9296;48.084;16.352;2023-10-08T11:08:49;17.40;99.90
18341;DHT22;9296;48.084;16.352;2023-10-08T11:11:18;17.40;99.90
18341;DHT22;9296;48.084;16.352;2023-10-08T11:13:45;17.20;99.90
18341;DHT22;9296;48.084;16.352;2023-10-08T11:16:23;17.10;99.90
18341;DHT22;9296;48.084;16.352;2023-10-08T11:18:50;17.10;99.90
18341;DHT22;9296;48.084;16.352;2023-10-08T11:21:23;17.00;99.90
18341;DHT22;9296;48.084;16.352;2023-10-08T11:23:52;16.80;99.90
18341;DHT22;9296;48.084;16.352;2023-10-08T11:26:21;16.70;99.90
18341;DHT22;9296;48.084;16.352;2023-10-08T11:28:58;16.60;99.90
18341;DHT22;9296;48.084;16.352;2023-10-08T11:31:28;16.40;99.90
18341;DHT22;9296;48.084;16.352;2023-10-08T11:34:00;16.20;99.90
18341;DHT22;9296;48.084;16.352;2023-10-08T11:36:28;16.10;99.90
18341;DHT22;9296;48.084;16.352;2023-10-08T11:39:09;16.00;99.90
18341;DHT22;9296;48.084;16.352;2023-10-08T11:41:37;15.90;99.90
18341;DHT22;9296;48.084;16.352;2023-10-08T11:44:15;15.80;99.90
18341;DHT22;9296;48.084;16.352;2023-10-08T11:46:46;15.70;99.90
18341;DHT22;9296;48.084;16.352;2023-10-08T11:49:17;15.80;99.90
18341;DHT22;9296;48.084;16.352;2023-10-08T11:51:45;15.50;99.90
18341;DHT22;9296;48.084;16.352;2023-10-08T11:54:13;15.40;99.90
18341;DHT22;9296;48.084;16.352;2023-10-08T11:56:40;15.20;99.90
18341;DHT22;9296;48.084;16.352;2023-10-08T11:59:07;15.20;99.90
18341;DHT22;9296;48.084;16.352;2023-10-08T12:01:35;15.30;99.90
18341;DHT22;9296;48.084;16.352;2023-10-08T12:04:05;15.30;99.90
18341;DHT22;9296;48.084;16.352;2023-10-08T12:06:38;15.30;99.90
18341;DHT22;9296;48.084;16.352;2023-10-08T12:09:12;15.20;99.90
18341;DHT22;9296;48.084;16.352;2023-10-08T12:15:02;15.10;99.90
18341;DHT22;9296;48.084;16.352;2023-10-08T12:17:30;15.00;99.90
18341;DHT22;9296;48.084;16.352;2023-10-08T12:20:07;15.00;99.90
18341;DHT22;9296;48.084;16.352;2023-10-08T12:30:01;14.80;99.90
18341;DHT22;9296;48.084;16.352;2023-10-08T12:32:35;14.70;99.90
18341;DHT22;9296;48.084;16.352;2023-10-08T12:35:03;14.60;99.90
18341;DHT22;9296;48.084;16.352;2023-10-08T12:37:32;14.60;99.90
18341;DHT22;9296;48.084;16.352;2023-10-08T12:40:02;14.80;99.90
18341;DHT22;9296;48.084;16.352;2023-10-08T12:42:38;14.50;99.90
18341;DHT22;9296;48.084;16.352;2023-10-08T12:45:06;14.50;99.90
18341;DHT22;9296;48.084;16.352;2023-10-08T12:47:50;14.40;99.90
18341;DHT22;9296;48.084;16.352;2023-10-08T12:50:19;14.40;99.90
18341;DHT22;9296;48.084;16.352;2023-10-08T12:52:56;14.20;99.90
18341;DHT22;9296;48.084;16.352;2023-10-08T12:55:26;14.00;99.90
18341;DHT22;9296;48.084;16.352;2023-10-08T12:57:56;13.90;99.90
18341;DHT22;9296;48.084;16.352;2023-10-08T13:01:10;13.90;99.90
18341;DHT22;9296;48.084;16.352;2023-10-08T13:06:38;13.90;99.90
18341;DHT22;9296;48.084;16.352;2023-10-08T13:09:43;13.80;99.90
18341;DHT22;9296;48.084;16.352;2023-10-08T13:12:11;13.90;99.90
18341;DHT22;9296;48.084;16.352;2023-10-08T13:14:55;13.90;99.90
18341;DHT22;9296;48.084;16.352;2023-10-08T13:17:50;13.90;99.90
18341;DHT22;9296;48.084;16.352;2023-10-08T13:20:17;13.90;99.90
18341;DHT22;9296;48.084;16.352;2023-10-08T13:36:47;13.70;99.90
18341;DHT22;9296;48.084;16.352;2023-10-08T13:45:35;13.60;99.90
18341;DHT22;9296;48.084;16.352;2023-10-08T13:48:38;13.60;99.90
18341;DHT22;9296;48.084;16.352;2023-10-08T13:51:35;13.60;99.90
18341;DHT22;9296;48.084;16.352;2023-10-08T13:54:38;13.60;99.90
18341;DHT22;9296;48.084;16.352;2023-10-08T13:57:24;13.70;99.90
18341;DHT22;9296;48.084;16.352;2023-10-08T13:59:59;13.80;99.90
18341;DHT22;9296;48.084;16.352;2023-10-08T14:02:55;13.80;99.90
18341;DHT22;9296;48.084;16.352;2023-10-08T14:05:22;13.80;99.90
18341;DHT22;9296;48.084;16.352;2023-10-08T14:07:55;13.80;99.90
18341;DHT22;9296;48.084;16.352;2023-10-08T14:10:28;13.80;99.90
18341;DHT22;9296;48.084;16.352;2023-10-08T14:13:36;13.80;99.90
18341;DHT22;9296;48.084;16.352;2023-10-08T14:23:10;13.70;99.90
18341;DHT22;9296;48.084;16.352;2023-10-08T14:25:58;13.70;99.90
18341;DHT22;9296;48.084;16.352;2023-10-08T14:32:11;13.60;99.90
18341;DHT22;9296;48.084;16.352;2023-10-08T14:38:18;13.60;99.90
18341;DHT22;9296;48.084;16.352;2023-10-08T14:48:06;13.60;99.90
18341;DHT22;9296;48.084;16.352;2023-10-08T14:51:25;13.50;99.90
18341;DHT22;9296;48.084;16.352;2023-10-08T15:00:16;13.40;99.90
18341;DHT22;9296;48.084;16.352;2023-10-08T15:19:01;13.50;99.90
18341;DHT22;9296;48.084;16.352;2023-10-08T15:21:39;13.60;99.90
18341;DHT22;9296;48.084;16.352;2023-10-08T15:30:32;13.60;99.90
18341;DHT22;9296;48.084;16.352;2023-10-08T15:33:42;13.60;99.90
18341;DHT22;9296;48.084;16.352;2023-10-08T15:36:42;13.60;99.90
18341;DHT22;9296;48.084;16.352;2023-10-08T15:39:27;13.50;99.90
18341;DHT22;9296;48.084;16.352;2023-10-08T15:42:55;13.50;99.90
18341;DHT22;9296;48.084;16.352;2023-10-08T15:46:16;13.40;99.90
18341;DHT22;9296;48.084;16.352;2023-10-08T15:49:22;13.40;99.90
18341;DHT22;9296;48.084;16.352;2023-10-08T16:00:12;13.30;99.90
18341;DHT22;9296;48.084;16.352;2023-10-08T16:03:06;13.20;99.90
18341;DHT22;9296;48.084;16.352;2023-10-08T16:32:57;13.20;99.90
18341;DHT22;9296;48.084;16.352;2023-10-08T16:36:00;13.60;99.90
18341;DHT22;9296;48.084;16.352;2023-10-08T16:54:37;13.10;99.90
18341;DHT22;9296;48.084;16.352;2023-10-08T17:03:23;13.10;99.90
18341;DHT22;9296;48.084;16.352;2023-10-08T17:09:02;13.00;99.90
18341;DHT22;9296;48.084;16.352;2023-10-08T17:23:05;13.00;99.90
18341;DHT22;9296;48.084;16.352;2023-10-08T17:25:43;12.90;99.90
18341;DHT22;9296;48.084;16.352;2023-10-08T17:31:58;13.00;99.90
18341;DHT22;9296;48.084;16.352;2023-10-08T18:43:40;13.00;99.90
18341;DHT22;9296;48.084;16.352;2023-10-08T18:46:15;13.00;99.90
18341;DHT22;9296;48.084;16.352;2023-10-08T18:48:43;13.00;99.90
18341;DHT22;9296;48.084;16.352;2023-10-08T18:51:14;13.00;99.90
18341;DHT22;9296;48.084;16.352;2023-10-08T18:53:57;13.00;99.90
18341;DHT22;9296;48.084;16.352;2023-10-08T18:56:36;13.00;99.90
18341;DHT22;9296;48.084;16.352;2023-10-08T19:08:58;13.20;99.90
18341;DHT22;9296;48.084;16.352;2023-10-08T19:11:42;13.00;99.90
18341;DHT22;9296;48.084;16.352;2023-10-08T19:14:23;13.10;99.90
18341;DHT22;9296;48.084;16.352;2023-10-08T19:17:01;13.10;99.90
18341;DHT22;9296;48.084;16.352;2023-10-08T19:30:59;13.30;99.90
18341;DHT22;9296;48.084;16.352;2023-10-08T19:33:39;13.30;99.90
18341;DHT22;9296;48.084;16.352;2023-10-08T19:36:51;13.30;99.90
18341;DHT22;9296;48.084;16.352;2023-10-08T19:39:42;13.40;99.90
18341;DHT22;9296;48.084;16.352;2023-10-08T19:42:38;13.40;99.90
18341;DHT22;9296;48.084;16.352;2023-10-08T19:49:10;13.20;99.90
18341;DHT22;9296;48.084;16.352;2023-10-08T19:54:20;13.50;99.90
18341;DHT22;9296;48.084;16.352;2023-10-08T19:57:18;13.50;99.90
18341;DHT22;9296;48.084;16.352;2023-10-08T20:03:09;13.40;99.90
18341;DHT22;9296;48.084;16.352;2023-10-08T20:06:00;13.50;99.90
18341;DHT22;9296;48.084;16.352;2023-10-08T20:08:41;13.60;99.90
18341;DHT22;9296;48.084;16.352;2023-10-08T20:11:10;13.60;99.90
18341;DHT22;9296;48.084;16.352;2023-10-08T20:13:41;13.60;99.90
18341;DHT22;9296;48.084;16.352;2023-10-08T20:16:09;13.60;99.90
18341;DHT22;9296;48.084;16.352;2023-10-08T20:21:13;13.70;99.90
18341;DHT22;9296;48.084;16.352;2023-10-08T20:23:46;13.70;99.90
18341;DHT22;9296;48.084;16.352;2023-10-08T20:26:17;13.70;99.90
18341;DHT22;9296;48.084;16.352;2023-10-08T20:29:09;13.90;99.90
18341;DHT22;9296;48.084;16.352;2023-10-08T20:31:44;13.60;99.90
18341;DHT22;9296;48.084;16.352;2023-10-08T20:34:14;14.00;99.90
18341;DHT22;9296;48.084;16.352;2023-10-08T20:36:43;13.50;99.90
18341;DHT22;9296;48.084;16.352;2023-10-08T20:39:11;13.50;99.90
18341;DHT22;9296;48.084;16.352;2023-10-08T20:41:45;13.50;99.90
18341;DHT22;9296;48.084;16.352;2023-10-08T20:47:37;13.70;99.90
18341;DHT22;9296;48.084;16.352;2023-10-08T20:50:17;13.60;99.90
18341;DHT22;9296;48.084;16.352;2023-10-08T20:52:53;13.60;99.90
18341;DHT22;9296;48.084;16.352;2023-10-08T20:55:24;13.70;99.90
18341;DHT22;9296;48.084;16.352;2023-10-08T20:57:55;13.60;99.90
18341;DHT22;9296;48.084;16.352;2023-10-08T21:00:28;13.60;99.90
18341;DHT22;9296;48.084;16.352;2023-10-08T21:03:09;13.60;99.90
18341;DHT22;9296;48.084;16.352;2023-10-08T21:05:41;13.50;99.90
18341;DHT22;9296;48.084;16.352;2023-10-08T21:08:14;13.50;99.90
18341;DHT22;9296;48.084;16.352;2023-10-08T21:10:44;13.50;99.90
18341;DHT22;9296;48.084;16.352;2023-10-08T21:56:13;13.50;99.90